createdAt,value
2022-07-27T00:01:35.906Z,13.88
2022-07-27T00:04:05.086Z,9.55
2022-07-27T00:06:34.109Z,11.52
2022-07-27T00:09:02.907Z,10.48
2022-07-27T00:11:33.141Z,9.45
2022-07-27T00:14:01.929Z,9.23
2022-07-27T00:16:30.757Z,11.80
2022-07-27T00:19:00.224Z,11.00
2022-07-27T00:21:29.162Z,10.73
2022-07-27T00:23:58.633Z,13.60
2022-07-27T00:26:28.298Z,11.27
2022-07-27T00:28:58.529Z,11.45
2022-07-27T00:31:27.585Z,11.90
2022-07-27T00:33:56.526Z,8.43
2022-07-27T00:36:25.439Z,12.18
2022-07-27T00:38:54.422Z,9.30
2022-07-27T00:41:23.339Z,11.70
2022-07-27T00:43:54.640Z,8.45
2022-07-27T00:46:26.059Z,9.27
2022-07-27T00:48:55.322Z,9.73
2022-07-27T00:51:24.643Z,9.90
2022-07-27T00:53:54.995Z,9.70
2022-07-27T00:56:24.637Z,12.48
2022-07-27T00:58:54.763Z,11.82
2022-07-27T01:01:25.079Z,8.75
2022-07-27T01:03:54.188Z,11.88
2022-07-27T01:06:27.358Z,11.57
2022-07-27T01:09:18.502Z,9.85
2022-07-27T01:11:48.640Z,9.45
2022-07-27T01:14:18.272Z,8.55
2022-07-27T01:16:48.654Z,11.13
2022-07-27T01:19:17.585Z,9.57
2022-07-27T01:21:47.920Z,10.55
2022-07-27T01:24:16.734Z,16.08
2022-07-27T01:26:46.349Z,9.80
2022-07-27T01:29:15.242Z,10.80
2022-07-27T01:31:44.688Z,9.27
2022-07-27T01:34:13.588Z,9.48
2022-07-27T01:36:42.303Z,12.43
2022-07-27T01:39:12.873Z,10.10
2022-07-27T01:41:41.901Z,14.05
2022-07-27T01:44:11.064Z,7.40
2022-07-27T01:46:40.001Z,9.45
2022-07-27T01:49:09.505Z,10.05
2022-07-27T01:51:38.583Z,9.00
2022-07-27T01:54:07.586Z,10.93
2022-07-27T01:56:37.832Z,9.40
2022-07-27T01:59:06.626Z,9.98
2022-07-27T02:01:35.672Z,9.27
2022-07-27T02:04:04.921Z,8.75
2022-07-27T02:06:33.779Z,9.73
2022-07-27T02:09:02.863Z,8.85
2022-07-27T02:11:48.913Z,9.13
2022-07-27T02:14:21.217Z,9.57
2022-07-27T02:16:50.662Z,13.63
2022-07-27T02:19:19.627Z,10.60
2022-07-27T02:21:48.540Z,12.73
2022-07-27T02:24:17.338Z,9.65
2022-07-27T02:26:46.163Z,7.85
2022-07-27T02:29:19.743Z,9.57
2022-07-27T02:31:48.533Z,11.02
2022-07-27T02:34:17.319Z,9.73
2022-07-27T02:36:46.074Z,10.27
2022-07-27T02:39:15.195Z,7.45
2022-07-27T02:41:45.042Z,8.50
2022-07-27T02:44:14.691Z,8.13
2022-07-27T02:46:44.972Z,14.43
2022-07-27T02:49:14.301Z,12.27
2022-07-27T02:51:43.414Z,8.73
2022-07-27T02:54:12.241Z,16.50
2022-07-27T02:56:41.001Z,40.70
2022-07-27T02:59:10.222Z,10.45
2022-07-27T03:01:39.381Z,9.35
2022-07-27T03:04:09.687Z,11.52
2022-07-27T03:06:38.482Z,33.83
2022-07-27T03:09:07.341Z,43.65
2022-07-27T03:11:36.412Z,149.43
2022-07-27T03:14:05.402Z,112.70
2022-07-27T03:16:34.271Z,46.90
2022-07-27T03:19:03.052Z,22.98
2022-07-27T03:21:33.361Z,11.95
2022-07-27T03:24:02.176Z,43.55
2022-07-27T03:26:33.365Z,12.18
2022-07-27T03:29:02.232Z,8.40
2022-07-27T03:31:31.282Z,8.60
2022-07-27T03:34:01.977Z,10.23
2022-07-27T03:36:31.152Z,10.13
2022-07-27T03:39:05.924Z,9.05
2022-07-27T03:41:35.086Z,11.10
2022-07-27T03:44:04.027Z,10.73
2022-07-27T03:46:32.879Z,8.35
2022-07-27T03:49:01.986Z,7.82
2022-07-27T03:51:43.460Z,11.00
2022-07-27T03:54:14.036Z,10.07
2022-07-27T03:56:42.805Z,6.03
2022-07-27T03:59:11.924Z,5.78
2022-07-27T04:01:41.201Z,8.40
2022-07-27T04:04:10.177Z,7.38
2022-07-27T04:06:39.127Z,8.98
2022-07-27T04:09:09.157Z,8.75
2022-07-27T04:11:43.443Z,6.22
2022-07-27T04:14:12.960Z,6.05
2022-07-27T04:16:44.755Z,7.43
2022-07-27T04:19:14.307Z,9.35
2022-07-27T04:21:43.310Z,7.63
2022-07-27T04:24:12.232Z,5.78
2022-07-27T04:26:42.675Z,8.57
2022-07-27T04:29:13.070Z,8.57
2022-07-27T04:31:44.091Z,9.30
2022-07-27T04:34:12.880Z,9.02
2022-07-27T04:36:41.771Z,6.47
2022-07-27T04:39:11.141Z,9.20
2022-07-27T04:41:40.128Z,10.00
2022-07-27T04:44:10.353Z,8.30
2022-07-27T04:46:39.992Z,6.68
2022-07-27T04:49:09.065Z,10.82
2022-07-27T04:51:37.982Z,9.30
2022-07-27T04:54:07.033Z,7.18
2022-07-27T04:56:36.065Z,8.05
2022-07-27T04:59:05.140Z,14.85
2022-07-27T05:01:35.618Z,13.43
2022-07-27T05:04:05.371Z,21.58
2022-07-27T05:06:34.270Z,11.65
2022-07-27T05:09:03.563Z,7.32
2022-07-27T05:11:32.443Z,8.20
2022-07-27T05:14:02.470Z,5.53
2022-07-27T05:16:31.828Z,8.55
2022-07-27T05:19:01.929Z,6.78
2022-07-27T05:21:30.968Z,7.97
2022-07-27T05:23:59.737Z,4.95
2022-07-27T05:26:28.610Z,6.07
2022-07-27T05:28:57.566Z,6.65
2022-07-27T05:31:26.399Z,4.85
2022-07-27T05:33:58.416Z,6.47
2022-07-27T05:36:28.925Z,4.97
2022-07-27T05:38:57.737Z,8.63
2022-07-27T05:41:28.575Z,7.68
2022-07-27T05:43:57.561Z,4.65
2022-07-27T05:46:31.057Z,4.38
2022-07-27T05:49:01.972Z,5.22
2022-07-27T05:51:32.725Z,6.32
2022-07-27T05:54:01.612Z,4.60
2022-07-27T05:56:31.217Z,5.28
2022-07-27T05:59:04.991Z,9.35
2022-07-27T06:01:35.876Z,5.97
2022-07-27T06:04:05.708Z,5.38
2022-07-27T06:06:53.608Z,5.00
2022-07-27T06:09:22.436Z,6.35
2022-07-27T06:11:51.492Z,6.05
2022-07-27T06:14:20.729Z,5.70
2022-07-27T06:16:49.577Z,4.78
2022-07-27T06:19:18.746Z,6.25
2022-07-27T06:21:53.344Z,5.88
2022-07-27T06:24:22.817Z,7.65
2022-07-27T06:26:51.700Z,5.53
2022-07-27T06:29:20.702Z,6.47
2022-07-27T06:31:49.647Z,9.30
2022-07-27T06:34:18.543Z,7.15
2022-07-27T06:36:49.927Z,10.95
2022-07-27T06:39:18.685Z,7.45
2022-07-27T06:41:48.410Z,4.78
2022-07-27T06:44:17.388Z,9.35
2022-07-27T06:46:46.194Z,8.05
2022-07-27T06:49:15.591Z,4.78
2022-07-27T06:51:44.844Z,6.80
2022-07-27T06:54:14.991Z,4.60
2022-07-27T06:56:44.883Z,8.30
2022-07-27T06:59:14.226Z,9.10
2022-07-27T07:01:48.482Z,5.78
2022-07-27T07:04:18.121Z,8.43
2022-07-27T07:06:53.814Z,5.90
2022-07-27T07:09:24.029Z,4.50
2022-07-27T07:11:52.920Z,4.35
2022-07-27T07:14:22.643Z,4.20
2022-07-27T07:16:51.525Z,5.35
2022-07-27T07:19:20.770Z,5.15
2022-07-27T07:21:50.012Z,6.45
2022-07-27T07:24:18.920Z,4.82
2022-07-27T07:26:49.172Z,5.97
2022-07-27T07:29:18.778Z,4.38
2022-07-27T07:31:47.675Z,7.38
2022-07-27T07:34:16.478Z,5.05
2022-07-27T07:36:47.910Z,3.70
2022-07-27T07:39:17.398Z,5.55
2022-07-27T07:41:46.431Z,4.10
2022-07-27T07:44:16.942Z,5.13
2022-07-27T07:46:47.352Z,5.15
2022-07-27T07:49:16.769Z,6.40
2022-07-27T07:51:46.210Z,7.50
2022-07-27T07:54:15.390Z,5.38
2022-07-27T07:56:44.418Z,3.38
2022-07-27T07:59:13.702Z,4.38
2022-07-27T08:01:44.319Z,10.88
2022-07-27T08:04:13.195Z,6.20
2022-07-27T08:06:42.127Z,6.35
2022-07-27T08:09:13.453Z,4.18
2022-07-27T08:11:42.741Z,4.22
2022-07-27T08:14:11.972Z,5.88
2022-07-27T08:16:41.051Z,8.48
2022-07-27T08:19:11.877Z,7.65
2022-07-27T08:21:40.951Z,8.13
2022-07-27T08:24:09.912Z,4.95
2022-07-27T08:26:38.990Z,8.18
2022-07-27T08:29:13.548Z,4.40
2022-07-27T08:31:52.354Z,5.35
2022-07-27T08:34:23.547Z,4.25
2022-07-27T08:36:52.341Z,4.00
2022-07-27T08:40:05.786Z,4.05
2022-07-27T08:42:11.985Z,5.85
2022-07-27T08:44:42.298Z,5.85
2022-07-27T08:47:12.476Z,7.28
2022-07-27T08:49:44.309Z,3.72
2022-07-27T08:52:13.522Z,6.20
2022-07-27T08:54:43.323Z,6.40
2022-07-27T08:57:12.843Z,5.63
2022-07-27T08:59:41.672Z,5.78
2022-07-27T09:02:15.044Z,7.10
2022-07-27T09:04:45.493Z,7.72
2022-07-27T09:07:28.708Z,5.07
2022-07-27T09:10:00.836Z,4.47
2022-07-27T09:12:30.957Z,3.30
2022-07-27T09:15:10.094Z,4.38
2022-07-27T09:17:48.996Z,5.63
2022-07-27T09:20:21.771Z,4.68
2022-07-27T09:22:53.145Z,10.73
2022-07-27T09:25:44.949Z,4.47
2022-07-27T09:28:12.135Z,6.13
2022-07-27T09:30:43.731Z,7.55
2022-07-27T09:33:16.574Z,5.75
2022-07-27T09:35:59.482Z,3.38
2022-07-27T09:38:28.365Z,6.75
2022-07-27T09:41:00.613Z,5.60
2022-07-27T09:46:31.640Z,4.55
2022-07-27T09:49:01.106Z,5.97
2022-07-27T09:54:21.064Z,5.38
2022-07-27T09:57:00.683Z,9.05
2022-07-27T09:59:31.311Z,4.10
2022-07-27T10:02:01.759Z,4.53
2022-07-27T10:04:33.915Z,4.85
2022-07-27T10:07:13.207Z,4.85
2022-07-27T10:09:43.433Z,3.35
2022-07-27T10:12:12.610Z,5.03
2022-07-27T10:14:41.546Z,4.78
2022-07-27T10:17:13.161Z,5.43
2022-07-27T10:19:47.005Z,4.40
2022-07-27T10:22:17.321Z,4.60
2022-07-27T10:25:00.019Z,4.85
2022-07-27T10:27:30.516Z,6.47
2022-07-27T10:30:00.081Z,3.10
2022-07-27T10:32:31.723Z,5.25
2022-07-27T10:35:02.132Z,5.23
2022-07-27T10:37:34.156Z,6.32
2022-07-27T10:40:23.271Z,7.25
2022-07-27T10:42:54.568Z,4.78
2022-07-27T10:45:23.852Z,4.30
2022-07-27T10:47:54.133Z,6.68
2022-07-27T10:50:32.051Z,4.55
2022-07-27T10:53:05.976Z,6.75
2022-07-27T10:55:46.111Z,3.97
2022-07-27T10:58:52.494Z,4.57
2022-07-27T11:01:24.094Z,5.28
2022-07-27T11:03:53.823Z,5.18
2022-07-27T11:06:48.186Z,5.03
2022-07-27T11:12:18.478Z,4.55
2022-07-27T11:14:49.626Z,3.70
2022-07-27T11:17:52.603Z,3.53
2022-07-27T11:20:13.335Z,2.45
2022-07-27T11:23:26.656Z,3.92
2022-07-27T11:25:34.126Z,3.03
2022-07-27T11:28:08.364Z,4.07
2022-07-27T11:30:37.381Z,3.35
2022-07-27T11:33:07.321Z,3.58
2022-07-27T11:35:36.526Z,3.20
2022-07-27T11:38:07.804Z,4.15
2022-07-27T11:41:08.090Z,4.15
2022-07-27T11:43:43.992Z,3.53
2022-07-27T11:46:16.790Z,4.28
2022-07-27T11:49:07.149Z,4.75
2022-07-27T11:51:38.031Z,2.60
2022-07-27T11:54:08.828Z,5.95
2022-07-27T11:56:43.503Z,3.10
2022-07-27T11:59:16.324Z,7.47
2022-07-27T12:01:48.264Z,9.07
2022-07-27T12:04:23.882Z,5.97
2022-07-27T12:07:11.551Z,7.90
2022-07-27T12:09:44.455Z,5.05
2022-07-27T12:14:48.174Z,8.10
2022-07-27T12:17:27.260Z,6.35
2022-07-27T12:20:02.194Z,9.25
2022-07-27T12:22:34.242Z,4.82
2022-07-27T12:25:12.613Z,4.93
2022-07-27T12:27:57.455Z,3.92
2022-07-27T12:30:34.313Z,7.43
2022-07-27T12:33:04.337Z,4.50
2022-07-27T12:35:38.042Z,5.65
2022-07-27T12:38:10.020Z,5.20
2022-07-27T12:40:49.375Z,2.75
2022-07-27T12:43:21.423Z,6.93
2022-07-27T12:45:52.215Z,2.95
2022-07-27T12:48:25.931Z,4.00
2022-07-27T12:51:00.793Z,3.22
2022-07-27T12:53:30.700Z,3.78
2022-07-27T12:56:02.078Z,8.77
2022-07-27T12:58:32.607Z,3.63
2022-07-27T13:01:01.902Z,4.40
2022-07-27T13:03:30.813Z,5.40
2022-07-27T13:05:59.646Z,4.70
2022-07-27T13:08:29.210Z,8.95
2022-07-27T13:11:01.015Z,4.43
2022-07-27T13:13:29.950Z,4.65
2022-07-27T13:16:00.780Z,4.72
2022-07-27T13:18:30.002Z,5.57
2022-07-27T13:20:59.534Z,2.80
2022-07-27T13:23:29.563Z,6.15
2022-07-27T13:25:58.452Z,4.20
2022-07-27T13:28:27.548Z,5.45
2022-07-27T13:30:57.262Z,5.20
2022-07-27T13:33:27.528Z,5.90
2022-07-27T13:36:00.673Z,4.88
2022-07-27T13:38:30.067Z,7.28
2022-07-27T13:40:59.179Z,6.07
2022-07-27T13:43:31.212Z,6.10
2022-07-27T13:46:00.265Z,4.38
2022-07-27T13:48:31.200Z,6.55
2022-07-27T13:51:00.017Z,5.72
2022-07-27T13:53:28.895Z,8.00
2022-07-27T13:55:58.186Z,4.28
2022-07-27T13:58:27.108Z,10.82
2022-07-27T14:00:56.206Z,4.97
2022-07-27T14:03:25.275Z,9.55
2022-07-27T14:06:01.803Z,6.22
2022-07-27T14:08:30.620Z,5.65
2022-07-27T14:10:59.927Z,6.63
2022-07-27T14:13:32.866Z,4.93
2022-07-27T14:16:03.072Z,4.47
2022-07-27T14:18:33.325Z,6.05
2022-07-27T14:21:05.877Z,10.02
2022-07-27T14:23:35.715Z,6.22
2022-07-27T14:26:06.954Z,4.45
2022-07-27T14:28:35.948Z,5.07
2022-07-27T14:31:06.615Z,4.88
2022-07-27T14:33:37.244Z,4.05
2022-07-27T14:36:10.349Z,6.97
2022-07-27T14:41:08.801Z,4.40
2022-07-27T14:43:38.036Z,5.85
2022-07-27T14:46:07.337Z,5.85
2022-07-27T14:49:05.163Z,7.00
2022-07-27T14:51:26.833Z,6.15
2022-07-27T14:53:55.822Z,5.32
2022-07-27T14:56:24.685Z,6.30
2022-07-27T14:58:53.657Z,8.65
2022-07-27T15:01:22.648Z,5.03
2022-07-27T15:03:51.537Z,5.18
2022-07-27T15:06:20.425Z,4.80
2022-07-27T15:08:50.605Z,4.07
2022-07-27T15:11:19.595Z,6.20
2022-07-27T15:13:48.436Z,7.63
2022-07-27T15:16:17.911Z,8.00
2022-07-27T15:18:48.032Z,5.13
2022-07-27T15:21:17.846Z,5.15
2022-07-27T15:23:46.892Z,5.95
2022-07-27T15:26:17.680Z,6.90
2022-07-27T15:28:46.522Z,7.55
2022-07-27T15:31:18.718Z,9.35
2022-07-27T15:33:47.594Z,5.93
2022-07-27T15:36:32.010Z,6.30
2022-07-27T15:39:03.335Z,7.70
2022-07-27T15:41:37.267Z,5.90
2022-07-27T15:44:06.875Z,8.20
2022-07-27T15:46:35.944Z,8.90
2022-07-27T15:49:05.256Z,4.82
2022-07-27T15:51:34.407Z,5.60
2022-07-27T15:54:03.351Z,7.30
2022-07-27T15:56:32.485Z,7.20
2022-07-27T15:59:02.818Z,5.80
2022-07-27T16:01:35.744Z,5.60
2022-07-27T16:04:05.992Z,6.22
2022-07-27T16:06:39.390Z,7.47
2022-07-27T16:09:10.557Z,6.95
2022-07-27T16:11:40.985Z,5.03
2022-07-27T16:14:11.280Z,6.57
2022-07-27T16:16:40.169Z,6.75
2022-07-27T16:19:14.139Z,6.38
2022-07-27T16:21:55.337Z,6.43
2022-07-27T16:24:26.569Z,5.95
2022-07-27T16:26:55.961Z,7.30
2022-07-27T16:29:27.412Z,5.38
2022-07-27T16:31:58.306Z,6.50
2022-07-27T16:34:28.112Z,10.00
2022-07-27T16:36:58.367Z,5.90
2022-07-27T16:39:28.297Z,5.93
2022-07-27T16:41:58.574Z,4.97
2022-07-27T16:44:29.954Z,10.00
2022-07-27T16:46:59.280Z,6.30
2022-07-27T16:49:33.552Z,8.02
2022-07-27T16:52:05.957Z,6.03
2022-07-27T16:54:39.220Z,9.13
2022-07-27T16:57:09.375Z,8.38
2022-07-27T16:59:41.809Z,8.32
2022-07-27T17:02:11.364Z,4.47
2022-07-27T17:04:41.083Z,5.82
2022-07-27T17:07:12.526Z,5.35
2022-07-27T17:09:41.857Z,10.50
2022-07-27T17:12:10.741Z,7.25
2022-07-27T17:14:41.095Z,6.20
2022-07-27T17:17:10.349Z,11.23
2022-07-27T17:19:39.530Z,9.23
2022-07-27T17:22:11.164Z,5.28
2022-07-27T17:24:40.373Z,6.20
2022-07-27T17:27:09.349Z,7.30
2022-07-27T17:29:38.221Z,5.70
2022-07-27T17:32:08.832Z,7.85
2022-07-27T17:34:37.831Z,6.97
2022-07-27T17:37:06.834Z,6.60
2022-07-27T17:39:36.296Z,8.50
2022-07-27T17:42:07.437Z,7.32
2022-07-27T17:44:38.493Z,7.22
2022-07-27T17:47:08.962Z,9.30
2022-07-27T17:49:37.858Z,6.80
2022-07-27T17:52:08.585Z,8.70
2022-07-27T17:54:37.469Z,4.80
2022-07-27T17:57:06.558Z,9.80
2022-07-27T17:59:38.635Z,6.00
2022-07-27T18:02:09.144Z,7.50
2022-07-27T18:04:39.718Z,10.13
2022-07-27T18:07:09.124Z,5.10
2022-07-27T18:09:38.219Z,6.05
2022-07-27T18:12:08.490Z,6.65
2022-07-27T18:14:57.688Z,7.22
2022-07-27T18:17:28.509Z,6.57
2022-07-27T18:19:57.821Z,7.47
2022-07-27T18:22:27.095Z,7.68
2022-07-27T18:24:57.578Z,7.55
2022-07-27T18:27:26.996Z,7.50
2022-07-27T18:29:56.067Z,5.68
2022-07-27T18:32:24.956Z,7.97
2022-07-27T18:34:55.686Z,7.50
2022-07-27T18:37:25.031Z,10.32
2022-07-27T18:39:55.161Z,7.22
2022-07-27T18:42:24.555Z,9.38
2022-07-27T18:44:53.670Z,8.98
2022-07-27T18:47:22.993Z,8.55
2022-07-27T18:49:52.366Z,7.15
2022-07-27T18:52:23.049Z,5.75
2022-07-27T18:54:52.168Z,6.38
2022-07-27T18:57:21.755Z,6.28
2022-07-27T18:59:52.283Z,7.43
2022-07-27T19:02:23.470Z,7.93
2022-07-27T19:04:54.058Z,7.05
2022-07-27T19:07:25.734Z,9.30
2022-07-27T19:09:57.753Z,7.15
2022-07-27T19:12:27.542Z,8.70
2022-07-27T19:14:58.091Z,6.93
2022-07-27T19:17:27.595Z,6.88
2022-07-27T19:19:56.795Z,7.40
2022-07-27T19:22:27.392Z,8.43
2022-07-27T19:24:58.699Z,7.95
2022-07-27T19:27:28.107Z,8.20
2022-07-27T19:29:57.371Z,8.27
2022-07-27T19:32:26.969Z,5.57
2022-07-27T19:34:56.157Z,7.13
2022-07-27T19:37:29.844Z,6.53
2022-07-27T19:40:14.365Z,5.85
2022-07-27T19:42:48.192Z,4.50
2022-07-27T19:45:17.303Z,7.00
2022-07-27T19:47:48.919Z,6.25
2022-07-27T19:50:18.448Z,6.75
2022-07-27T19:52:49.237Z,11.07
2022-07-27T19:55:19.134Z,7.30
2022-07-27T19:57:48.780Z,7.20
2022-07-27T20:00:18.439Z,5.35
2022-07-27T20:02:48.425Z,5.90
2022-07-27T20:05:17.526Z,5.28
2022-07-27T20:07:48.304Z,5.80
2022-07-27T20:10:17.496Z,7.88
2022-07-27T20:12:46.511Z,5.93
2022-07-27T20:15:15.641Z,6.82
2022-07-27T20:17:47.139Z,6.88
2022-07-27T20:20:16.600Z,6.57
2022-07-27T20:22:45.577Z,8.10
2022-07-27T20:25:16.428Z,5.20
2022-07-27T20:27:46.021Z,5.82
2022-07-27T20:30:17.645Z,5.38
2022-07-27T20:32:47.694Z,8.40
2022-07-27T20:35:17.460Z,5.10
2022-07-27T20:37:47.827Z,5.25
2022-07-27T20:40:19.718Z,4.88
2022-07-27T20:42:49.011Z,15.90
2022-07-27T20:45:18.535Z,6.88
2022-07-27T20:47:47.587Z,5.68
2022-07-27T20:50:16.913Z,4.50
2022-07-27T20:52:45.933Z,4.00
2022-07-27T20:55:17.347Z,6.35
2022-07-27T20:57:46.426Z,5.22
2022-07-27T21:00:16.213Z,4.75
2022-07-27T21:02:45.299Z,4.43
2022-07-27T21:05:14.443Z,3.83
2022-07-27T21:07:47.116Z,7.13
2022-07-27T21:10:17.585Z,3.85
2022-07-27T21:12:47.096Z,4.78
2022-07-27T21:15:16.841Z,5.78
2022-07-27T21:17:46.048Z,4.30
2022-07-27T21:20:15.133Z,6.05
2022-07-27T21:22:44.863Z,4.65
2022-07-27T21:25:13.168Z,5.22
2022-07-27T21:27:46.267Z,4.43
2022-07-27T21:30:17.070Z,6.77
2022-07-27T21:32:46.416Z,11.20
2022-07-27T21:35:15.204Z,4.28
2022-07-27T21:37:45.967Z,8.00
2022-07-27T21:40:15.062Z,5.70
2022-07-27T21:42:45.462Z,5.43
2022-07-27T21:45:14.351Z,5.03
2022-07-27T21:47:43.272Z,4.43
2022-07-27T21:50:12.254Z,4.97
2022-07-27T21:52:41.440Z,4.00
2022-07-27T21:55:10.679Z,4.25
2022-07-27T21:57:39.567Z,5.13
2022-07-27T22:00:11.305Z,5.75
2022-07-27T22:02:40.275Z,6.25
2022-07-27T22:05:10.095Z,4.63
2022-07-27T22:07:38.945Z,4.90
2022-07-27T22:10:09.467Z,5.93
2022-07-27T22:12:38.516Z,5.57
2022-07-27T22:15:10.380Z,5.07
2022-07-27T22:17:49.035Z,4.10
2022-07-27T22:20:19.916Z,4.90
2022-07-27T22:22:49.257Z,4.70
2022-07-27T22:25:19.599Z,5.00
2022-07-27T22:27:48.537Z,6.07
2022-07-27T22:30:18.718Z,4.55
2022-07-27T22:32:47.698Z,6.45
2022-07-27T22:35:17.101Z,6.22
2022-07-27T22:37:45.991Z,6.80
2022-07-27T22:40:19.108Z,6.25
2022-07-27T22:42:48.034Z,5.82
2022-07-27T22:45:18.597Z,6.20
2022-07-27T22:47:47.383Z,9.95
2022-07-27T22:50:17.998Z,7.68
2022-07-27T22:52:48.404Z,7.05
2022-07-27T22:55:18.258Z,9.40
2022-07-27T22:57:50.663Z,8.32
2022-07-27T23:00:21.687Z,7.38
2022-07-27T23:02:51.549Z,6.95
2022-07-27T23:05:20.565Z,7.05
2022-07-27T23:07:49.777Z,5.97
2022-07-27T23:10:36.131Z,7.38
2022-07-27T23:13:05.272Z,7.80
2022-07-27T23:15:35.497Z,7.20
2022-07-27T23:18:04.321Z,7.05
2022-07-27T23:20:33.292Z,8.30
2022-07-27T23:23:02.345Z,7.35
2022-07-27T23:25:36.243Z,6.63
2022-07-27T23:28:06.091Z,6.93
2022-07-27T23:30:36.437Z,7.65
2022-07-27T23:33:05.919Z,6.07
2022-07-27T23:35:34.927Z,6.78
2022-07-27T23:38:03.988Z,6.28
2022-07-27T23:40:32.857Z,5.90
2022-07-27T23:43:01.699Z,6.50
2022-07-27T23:45:30.572Z,7.07
2022-07-27T23:48:00.831Z,6.20
2022-07-27T23:50:30.034Z,7.70
2022-07-27T23:52:58.912Z,7.40
2022-07-27T23:55:28.039Z,7.30
2022-07-27T23:57:57.445Z,6.00
